Ohio Valley — WDB9880 — position and weather

sailwx.info

Track history (hours):
 
Tides and Currents Weather Stations Pressure Air Temp Water Temp Dewpoint Dewpoint Depression Visibility Wind Speed Wind Dir Waves Ship Positions

Ohio Valley

Owner: Marathon Petroleum Company LP, Findlay, OH. More information available from US FCC via Universal Licensing System and Coast Guard Vessel Documentation Center.

Last reported at 2018-Feb-13 17:12 UTC. Time now 2018-Feb-20 01:47 UTC.
Position N 32°44' W 091°05'.

Length 45 m; draft 3 m.

Type: Towing. MMSI: 366984390.

Date/timePositionNaut miles runAvg speedWind from/ knotsBaromVisibWave heightAir tempDewpointWater temp
2018-Feb-13 17:12N 32°44' W 091°05'5 0.8
2018-Feb-13 10:58N 32°40' W 091°08'3 4.5
2018-Feb-13 10:24N 32°38' W 091°09'2 4.0
2018-Feb-13 09:58N 32°36' W 091°09'2 4.3
2018-Feb-13 09:30N 32°35' W 091°07'3 4.1
2018-Feb-13 08:53N 32°32' W 091°06'2 4.3
2018-Feb-13 08:26N 32°30' W 091°07'2 4.4
2018-Feb-13 08:00N 32°28' W 091°07'2 4.6
2018-Feb-13 07:30N 32°27' W 091°05'2 4.7
2018-Feb-13 07:00N 32°26' W 091°02'2 4.5
2018-Feb-13 06:30N 32°25' W 090°60'2 4.0
2018-Feb-13 06:00N 32°23' W 090°60'2 3.2
2018-Feb-13 05:30N 32°21' W 090°60'2 4.8
2018-Feb-13 05:00N 32°21' W 090°57'2 4.7
2018-Feb-13 04:31N 32°20' W 090°54'2 3.9
2018-Feb-13 04:00N 32°18' W 090°55'1 1.8
2018-Feb-13 03:31N 32°18' W 090°55'0 0.1
2018-Feb-13 03:00N 32°18' W 090°55'0 0.2
2018-Feb-13 02:30N 32°18' W 090°56'0 0.7
2018-Feb-13 02:00N 32°18' W 090°56'1 2.3
2018-Feb-13 01:30N 32°17' W 090°57'2 3.6
2018-Feb-13 01:00N 32°15' W 090°58'2 3.9
2018-Feb-13 00:29N 32°14' W 090°59'2 4.1
2018-Feb-13 00:00N 32°12' W 090°59'2 4.1
2018-Feb-12 23:30N 32°10' W 091°00'2 4.1
2018-Feb-12 23:00N 32°08' W 091°01'2 3.7
2018-Feb-12 22:30N 32°07' W 091°03'2 4.1
2018-Feb-12 22:00N 32°08' W 091°05'  
Track history (hours):
 
Tides and Currents Weather Stations Pressure Air Temp Water Temp Dewpoint Dewpoint Depression Visibility Wind Speed Wind Dir Waves Ship Positions

Ohio Valley

Owner: Marathon Petroleum Company LP, Findlay, OH. More information available from US FCC via Universal Licensing System and Coast Guard Vessel Documentation Center.

Last reported at 2018-Feb-13 17:12 UTC. Time now 2018-Feb-20 01:47 UTC.
Position N 32°44' W 091°05'.

Length 45 m; draft 3 m.

Type: Towing. MMSI: 366984390.

Date/timePositionNaut miles runAvg speedWind from/ knotsBaromVisibWave heightAir tempDewpointWater temp
2018-Feb-13 17:12N 32°44' W 091°05'5 0.8
2018-Feb-13 10:58N 32°40' W 091°08'3 4.5
2018-Feb-13 10:24N 32°38' W 091°09'2 4.0
2018-Feb-13 09:58N 32°36' W 091°09'2 4.3
2018-Feb-13 09:30N 32°35' W 091°07'3 4.1
2018-Feb-13 08:53N 32°32' W 091°06'2 4.3
2018-Feb-13 08:26N 32°30' W 091°07'2 4.4
2018-Feb-13 08:00N 32°28' W 091°07'2 4.6
2018-Feb-13 07:30N 32°27' W 091°05'2 4.7
2018-Feb-13 07:00N 32°26' W 091°02'2 4.5
2018-Feb-13 06:30N 32°25' W 090°60'2 4.0
2018-Feb-13 06:00N 32°23' W 090°60'2 3.2
2018-Feb-13 05:30N 32°21' W 090°60'2 4.8
2018-Feb-13 05:00N 32°21' W 090°57'2 4.7
2018-Feb-13 04:31N 32°20' W 090°54'2 3.9
2018-Feb-13 04:00N 32°18' W 090°55'1 1.8
2018-Feb-13 03:31N 32°18' W 090°55'0 0.1
2018-Feb-13 03:00N 32°18' W 090°55'0 0.2
2018-Feb-13 02:30N 32°18' W 090°56'0 0.7
2018-Feb-13 02:00N 32°18' W 090°56'1 2.3
2018-Feb-13 01:30N 32°17' W 090°57'2 3.6
2018-Feb-13 01:00N 32°15' W 090°58'2 3.9
2018-Feb-13 00:29N 32°14' W 090°59'2 4.1
2018-Feb-13 00:00N 32°12' W 090°59'2 4.1
2018-Feb-12 23:30N 32°10' W 091°00'2 4.1
2018-Feb-12 23:00N 32°08' W 091°01'2 3.7
2018-Feb-12 22:30N 32°07' W 091°03'2 4.1
2018-Feb-12 22:00N 32°08' W 091°05'  

Dump ship's entire track history